Norfolk — WDG2147 — position and weather

sailwx.info

Track history (hours):
 
Tides and Currents Weather Stations Pressure Air Temp Water Temp Dewpoint Dewpoint Depression Visibility Wind Speed Wind Dir Waves Ship Positions

Norfolk

Owner: Virginia Pilot Boat Corporation, Virginia Beach, VA. More information available from US FCC via Universal Licensing System and Coast Guard Vessel Documentation Center.

Last reported at 2017-Jun-28 20:07 UTC. Time now 2017-Jun-29 02:08 UTC.
Position N 36°56' W 076°20'.

Length 18 m; draft 1.5 m.

Type: Pilot. MMSI: 367512630.

Date/timePositionNaut miles runAvg speedWind from/ knotsBaromVisibWave heightAir tempDewpointWater temp
2017-Jun-28 20:07N 36°56' W 076°20'3 0.4
2017-Jun-28 11:53N 36°53' W 076°20'1 3.4
2017-Jun-28 11:30N 36°51' W 076°20'1 1.1
2017-Jun-28 11:00N 36°52' W 076°20'2 0.1
2017-Jun-27 10:03N 36°54' W 076°20'119.1
2017-Jun-27 10:00N 36°53' W 076°20'1 1.9
2017-Jun-27 09:22N 36°52' W 076°19'2 0.1
2017-Jun-26 22:14N 36°53' W 076°21'2 5.8
2017-Jun-26 21:57N 36°52' W 076°19'0 0.1
2017-Jun-26 20:48N 36°51' W 076°19'4 1.1
2017-Jun-26 17:36N 36°55' W 076°20'0 0.2
2017-Jun-26 17:30N 36°55' W 076°20'0 0.0
2017-Jun-26 16:58N 36°55' W 076°20'0 0.0
2017-Jun-26 15:59N 36°55' W 076°20'1 0.0
2017-Jun-26 01:17N 36°55' W 076°20'1 0.4
2017-Jun-25 23:10N 36°54' W 076°20'1 1.2
2017-Jun-25 22:31N 36°55' W 076°20'0 2.0
2017-Jun-25 22:30N 36°55' W 076°20'0 0.0
2017-Jun-25 22:00N 36°55' W 076°20'1 0.0
2017-Jun-25 00:20N 36°56' W 076°20'0 0.0
2017-Jun-24 23:59N 36°56' W 076°20'3 0.3
2017-Jun-24 11:46N 36°53' W 076°20'1 4.8
2017-Jun-24 11:30N 36°51' W 076°20'4 7.3
2017-Jun-24 11:00N 36°55' W 076°20'0 0.0
2017-Jun-24 10:30N 36°55' W 076°20'0 0.0
2017-Jun-24 10:00N 36°55' W 076°20'0 0.0
2017-Jun-24 09:30N 36°55' W 076°20'0 0.0
2017-Jun-24 09:00N 36°55' W 076°20'0 0.0
2017-Jun-24 04:49N 36°55' W 076°20'0 0.1
2017-Jun-24 04:30N 36°55' W 076°20'0 0.0
2017-Jun-24 04:00N 36°55' W 076°20'0 0.0
2017-Jun-24 03:28N 36°55' W 076°20'0 0.0
2017-Jun-24 02:58N 36°55' W 076°20'0 0.0
2017-Jun-24 01:13N 36°55' W 076°20'0 0.0
2017-Jun-24 01:00N 36°55' W 076°20'0 0.0
2017-Jun-24 00:29N 36°55' W 076°20'0 0.0
2017-Jun-23 23:56N 36°55' W 076°20'0 0.0
2017-Jun-23 23:30N 36°55' W 076°20'0 0.0
2017-Jun-23 13:35N 36°55' W 076°20'0 0.6
2017-Jun-23 13:31N 36°55' W 076°20'0 0.0
2017-Jun-23 13:01N 36°55' W 076°20'0 0.0
2017-Jun-23 12:31N 36°55' W 076°20'0 0.0
2017-Jun-23 12:01N 36°55' W 076°20'0 0.0
2017-Jun-23 11:31N 36°55' W 076°20'2 0.3
2017-Jun-23 04:39N 36°53' W 076°20'2 0.3
2017-Jun-22 22:07N 36°55' W 076°20'210.9
2017-Jun-22 21:55N 36°53' W 076°20'1 2.8
2017-Jun-22 21:25N 36°52' W 076°19'3 0.9
2017-Jun-22 17:23N 36°55' W 076°20'0 0.1
2017-Jun-22 17:00N 36°55' W 076°20'0 0.0
2017-Jun-22 16:30N 36°55' W 076°20'0 0.0
2017-Jun-22 16:00N 36°55' W 076°20'0 0.0
2017-Jun-22 15:30N 36°55' W 076°20'0 0.0
2017-Jun-22 15:00N 36°55' W 076°20'0 0.0
2017-Jun-22 14:30N 36°55' W 076°20'2 0.2
2017-Jun-22 04:09N 36°53' W 076°20'1 3.5
2017-Jun-22 04:00N 36°53' W 076°21'0 0.1
2017-Jun-22 03:29N 36°53' W 076°21'2 1.0
2017-Jun-22 01:08N 36°55' W 076°20'0 0.2
2017-Jun-22 01:00N 36°55' W 076°20'0 0.0
2017-Jun-22 00:30N 36°55' W 076°20'0 0.0
2017-Jun-22 00:00N 36°55' W 076°20'0 0.0
2017-Jun-21 23:30N 36°55' W 076°20'2 1.7
2017-Jun-21 22:34N 36°53' W 076°20'113.2
2017-Jun-21 22:30N 36°53' W 076°21'0 0.0
2017-Jun-21 09:28N 36°53' W 076°21'2 4.4
2017-Jun-21 08:57N 36°55' W 076°20'2 4.2
2017-Jun-21 08:26N 36°53' W 076°21'2 1.1
2017-Jun-21 06:13N 36°55' W 076°20'0 0.1
2017-Jun-21 06:00N 36°55' W 076°20'0 0.0
2017-Jun-21 05:30N 36°55' W 076°20'0 0.0
2017-Jun-21 05:00N 36°55' W 076°20'0 0.0
2017-Jun-21 03:29N 36°55' W 076°20'0 0.0
2017-Jun-21 03:00N 36°55' W 076°20'0 0.0
2017-Jun-21 02:30N 36°55' W 076°20'0 0.0
2017-Jun-21 02:00N 36°55' W 076°20'0 0.0
2017-Jun-21 01:30N 36°55' W 076°20'0 0.0
2017-Jun-21 01:00N 36°55' W 076°20'0 0.0
2017-Jun-21 00:31N 36°55' W 076°20'0 0.0
2017-Jun-21 00:00N 36°55' W 076°20'0 0.0
2017-Jun-20 23:30N 36°55' W 076°20'0 0.0
2017-Jun-20 22:41N 36°55' W 076°20'1 0.0
2017-Jun-19 17:54N 36°56' W 076°20'1 1.0
2017-Jun-19 17:03N 36°55' W 076°20'0 0.9
2017-Jun-19 17:00N 36°55' W 076°20'0 0.0
2017-Jun-19 16:30N 36°55' W 076°20'0 0.0
2017-Jun-19 16:00N 36°55' W 076°20'0 0.0
2017-Jun-19 15:30N 36°55' W 076°20'0 0.0
2017-Jun-19 14:47N 36°55' W 076°20'  
Track history (hours):
 
Tides and Currents Weather Stations Pressure Air Temp Water Temp Dewpoint Dewpoint Depression Visibility Wind Speed Wind Dir Waves Ship Positions

Norfolk

Owner: Virginia Pilot Boat Corporation, Virginia Beach, VA. More information available from US FCC via Universal Licensing System and Coast Guard Vessel Documentation Center.

Last reported at 2017-Jun-28 20:07 UTC. Time now 2017-Jun-29 02:08 UTC.
Position N 36°56' W 076°20'.

Length 18 m; draft 1.5 m.

Type: Pilot. MMSI: 367512630.

Date/timePositionNaut miles runAvg speedWind from/ knotsBaromVisibWave heightAir tempDewpointWater temp
2017-Jun-28 20:07N 36°56' W 076°20'3 0.4
2017-Jun-28 11:53N 36°53' W 076°20'1 3.4
2017-Jun-28 11:30N 36°51' W 076°20'1 1.1
2017-Jun-28 11:00N 36°52' W 076°20'2 0.1
2017-Jun-27 10:03N 36°54' W 076°20'119.1
2017-Jun-27 10:00N 36°53' W 076°20'1 1.9
2017-Jun-27 09:22N 36°52' W 076°19'2 0.1
2017-Jun-26 22:14N 36°53' W 076°21'2 5.8
2017-Jun-26 21:57N 36°52' W 076°19'0 0.1
2017-Jun-26 20:48N 36°51' W 076°19'4 1.1
2017-Jun-26 17:36N 36°55' W 076°20'0 0.2
2017-Jun-26 17:30N 36°55' W 076°20'0 0.0
2017-Jun-26 16:58N 36°55' W 076°20'0 0.0
2017-Jun-26 15:59N 36°55' W 076°20'1 0.0
2017-Jun-26 01:17N 36°55' W 076°20'1 0.4
2017-Jun-25 23:10N 36°54' W 076°20'1 1.2
2017-Jun-25 22:31N 36°55' W 076°20'0 2.0
2017-Jun-25 22:30N 36°55' W 076°20'0 0.0
2017-Jun-25 22:00N 36°55' W 076°20'1 0.0
2017-Jun-25 00:20N 36°56' W 076°20'0 0.0
2017-Jun-24 23:59N 36°56' W 076°20'3 0.3
2017-Jun-24 11:46N 36°53' W 076°20'1 4.8
2017-Jun-24 11:30N 36°51' W 076°20'4 7.3
2017-Jun-24 11:00N 36°55' W 076°20'0 0.0
2017-Jun-24 10:30N 36°55' W 076°20'0 0.0
2017-Jun-24 10:00N 36°55' W 076°20'0 0.0
2017-Jun-24 09:30N 36°55' W 076°20'0 0.0
2017-Jun-24 09:00N 36°55' W 076°20'0 0.0
2017-Jun-24 04:49N 36°55' W 076°20'0 0.1
2017-Jun-24 04:30N 36°55' W 076°20'0 0.0
2017-Jun-24 04:00N 36°55' W 076°20'0 0.0
2017-Jun-24 03:28N 36°55' W 076°20'0 0.0
2017-Jun-24 02:58N 36°55' W 076°20'0 0.0
2017-Jun-24 01:13N 36°55' W 076°20'0 0.0
2017-Jun-24 01:00N 36°55' W 076°20'0 0.0
2017-Jun-24 00:29N 36°55' W 076°20'0 0.0
2017-Jun-23 23:56N 36°55' W 076°20'0 0.0
2017-Jun-23 23:30N 36°55' W 076°20'0 0.0
2017-Jun-23 13:35N 36°55' W 076°20'0 0.6
2017-Jun-23 13:31N 36°55' W 076°20'0 0.0
2017-Jun-23 13:01N 36°55' W 076°20'0 0.0
2017-Jun-23 12:31N 36°55' W 076°20'0 0.0
2017-Jun-23 12:01N 36°55' W 076°20'0 0.0
2017-Jun-23 11:31N 36°55' W 076°20'2 0.3
2017-Jun-23 04:39N 36°53' W 076°20'2 0.3
2017-Jun-22 22:07N 36°55' W 076°20'210.9
2017-Jun-22 21:55N 36°53' W 076°20'1 2.8
2017-Jun-22 21:25N 36°52' W 076°19'3 0.9
2017-Jun-22 17:23N 36°55' W 076°20'0 0.1
2017-Jun-22 17:00N 36°55' W 076°20'0 0.0
2017-Jun-22 16:30N 36°55' W 076°20'0 0.0
2017-Jun-22 16:00N 36°55' W 076°20'0 0.0
2017-Jun-22 15:30N 36°55' W 076°20'0 0.0
2017-Jun-22 15:00N 36°55' W 076°20'0 0.0
2017-Jun-22 14:30N 36°55' W 076°20'2 0.2
2017-Jun-22 04:09N 36°53' W 076°20'1 3.5
2017-Jun-22 04:00N 36°53' W 076°21'0 0.1
2017-Jun-22 03:29N 36°53' W 076°21'2 1.0
2017-Jun-22 01:08N 36°55' W 076°20'0 0.2
2017-Jun-22 01:00N 36°55' W 076°20'0 0.0
2017-Jun-22 00:30N 36°55' W 076°20'0 0.0
2017-Jun-22 00:00N 36°55' W 076°20'0 0.0
2017-Jun-21 23:30N 36°55' W 076°20'2 1.7
2017-Jun-21 22:34N 36°53' W 076°20'113.2
2017-Jun-21 22:30N 36°53' W 076°21'0 0.0
2017-Jun-21 09:28N 36°53' W 076°21'2 4.4
2017-Jun-21 08:57N 36°55' W 076°20'2 4.2
2017-Jun-21 08:26N 36°53' W 076°21'2 1.1
2017-Jun-21 06:13N 36°55' W 076°20'0 0.1
2017-Jun-21 06:00N 36°55' W 076°20'0 0.0
2017-Jun-21 05:30N 36°55' W 076°20'0 0.0
2017-Jun-21 05:00N 36°55' W 076°20'0 0.0
2017-Jun-21 03:29N 36°55' W 076°20'0 0.0
2017-Jun-21 03:00N 36°55' W 076°20'0 0.0
2017-Jun-21 02:30N 36°55' W 076°20'0 0.0
2017-Jun-21 02:00N 36°55' W 076°20'0 0.0
2017-Jun-21 01:30N 36°55' W 076°20'0 0.0
2017-Jun-21 01:00N 36°55' W 076°20'0 0.0
2017-Jun-21 00:31N 36°55' W 076°20'0 0.0
2017-Jun-21 00:00N 36°55' W 076°20'0 0.0
2017-Jun-20 23:30N 36°55' W 076°20'0 0.0
2017-Jun-20 22:41N 36°55' W 076°20'1 0.0
2017-Jun-19 17:54N 36°56' W 076°20'1 1.0
2017-Jun-19 17:03N 36°55' W 076°20'0 0.9
2017-Jun-19 17:00N 36°55' W 076°20'0 0.0
2017-Jun-19 16:30N 36°55' W 076°20'0 0.0
2017-Jun-19 16:00N 36°55' W 076°20'0 0.0
2017-Jun-19 15:30N 36°55' W 076°20'0 0.0
2017-Jun-19 14:47N 36°55' W 076°20'  

Dump ship's entire track history